createdAt,value
2022-08-04T00:00:16.395Z,27.24
2022-08-04T00:02:52.686Z,27.17
2022-08-04T00:05:22.943Z,27.12
2022-08-04T00:08:06.316Z,27.07
2022-08-04T00:10:37.047Z,27.05
2022-08-04T00:13:05.701Z,27.02
2022-08-04T00:15:33.851Z,27.00
2022-08-04T00:18:05.931Z,26.98
2022-08-04T00:20:34.814Z,26.97
2022-08-04T00:23:03.276Z,26.93
2022-08-04T00:25:31.308Z,26.88
2022-08-04T00:28:02.221Z,26.86
2022-08-04T00:30:29.812Z,26.84
2022-08-04T00:32:58.759Z,26.83
2022-08-04T00:35:26.772Z,26.84
2022-08-04T00:37:55.562Z,26.84
2022-08-04T00:40:33.000Z,26.85
2022-08-04T00:43:22.786Z,26.83
2022-08-04T00:46:15.404Z,26.81
2022-08-04T00:49:10.941Z,26.80
2022-08-04T00:51:40.983Z,26.79
2022-08-04T00:54:17.410Z,26.78
2022-08-04T00:57:34.295Z,26.79
2022-08-04T01:00:14.962Z,26.77
2022-08-04T01:03:10.971Z,26.79
2022-08-04T01:05:48.631Z,26.77
2022-08-04T01:08:27.889Z,26.76
2022-08-04T01:11:13.890Z,26.74
2022-08-04T01:13:59.428Z,26.72
2022-08-04T01:16:27.949Z,26.72
2022-08-04T01:19:01.187Z,26.71
2022-08-04T01:21:31.265Z,26.72
2022-08-04T01:24:20.397Z,26.69
2022-08-04T01:27:06.486Z,26.66
2022-08-04T01:29:51.625Z,26.63
2022-08-04T01:32:31.784Z,26.61
2022-08-04T01:35:47.288Z,26.61
2022-08-04T01:38:30.725Z,26.64
2022-08-04T01:41:02.995Z,26.59
2022-08-04T01:43:31.434Z,26.53
2022-08-04T01:46:01.974Z,26.46
2022-08-04T01:48:29.877Z,26.42
2022-08-04T01:51:04.780Z,26.34
2022-08-04T01:53:35.480Z,26.27
2022-08-04T01:56:05.152Z,26.20
2022-08-04T01:58:34.146Z,26.15
2022-08-04T02:01:08.895Z,26.11
2022-08-04T02:04:20.632Z,26.02
2022-08-04T02:06:49.665Z,25.91
2022-08-04T02:09:54.755Z,25.82
2022-08-04T02:12:43.622Z,25.79
2022-08-04T02:15:27.007Z,25.76
2022-08-04T02:18:23.551Z,25.73
2022-08-04T02:20:58.267Z,25.68
2022-08-04T02:23:31.359Z,25.64
2022-08-04T02:26:03.355Z,25.60
2022-08-04T02:28:35.796Z,25.64
2022-08-04T02:31:12.395Z,25.67
2022-08-04T02:33:43.834Z,25.62
2022-08-04T02:36:21.445Z,25.65
2022-08-04T02:39:03.826Z,25.66
2022-08-04T02:41:33.426Z,25.68
2022-08-04T02:44:05.305Z,25.70
2022-08-04T02:46:34.234Z,25.72
2022-08-04T02:49:10.366Z,25.77
2022-08-04T02:51:43.444Z,25.81
2022-08-04T02:54:10.793Z,25.85
2022-08-04T02:56:39.770Z,25.88
2022-08-04T02:59:10.347Z,25.91
2022-08-04T03:01:57.476Z,25.88
2022-08-04T03:04:43.317Z,25.88
2022-08-04T03:07:45.546Z,25.87
2022-08-04T03:10:42.259Z,25.88
2022-08-04T03:13:40.776Z,25.95
2022-08-04T03:16:30.216Z,26.05
2022-08-04T03:19:40.407Z,26.11
2022-08-04T03:22:24.191Z,26.16
2022-08-04T03:25:14.921Z,26.17
2022-08-04T03:28:14.720Z,26.17
2022-08-04T03:31:16.387Z,26.19
2022-08-04T03:33:49.066Z,26.23
2022-08-04T03:36:38.557Z,26.24
2022-08-04T03:39:28.797Z,26.25
2022-08-04T03:42:39.584Z,26.25
2022-08-04T03:45:51.423Z,26.24
2022-08-04T03:48:36.762Z,26.21
2022-08-04T03:51:43.758Z,26.19
2022-08-04T03:54:14.000Z,26.19
2022-08-04T03:57:14.971Z,26.19
2022-08-04T03:59:50.400Z,26.17
2022-08-04T04:02:53.418Z,26.13
2022-08-04T04:05:56.057Z,26.10
2022-08-04T04:08:45.198Z,26.08
2022-08-04T04:11:20.032Z,26.07
2022-08-04T04:14:02.621Z,26.07
2022-08-04T04:16:46.579Z,26.10
2022-08-04T04:19:31.451Z,26.13
2022-08-04T04:22:11.702Z,26.14
2022-08-04T04:25:05.384Z,26.17
2022-08-04T04:28:44.661Z,26.20
2022-08-04T04:30:54.301Z,26.23
2022-08-04T04:33:37.630Z,26.28
2022-08-04T04:36:24.846Z,26.34
2022-08-04T04:39:25.894Z,26.42
2022-08-04T04:42:13.274Z,26.51
2022-08-04T04:44:49.598Z,26.60
2022-08-04T04:47:42.972Z,26.71
2022-08-04T04:50:44.102Z,26.85
2022-08-04T04:53:38.489Z,26.99
2022-08-04T04:56:41.830Z,27.15
2022-08-04T04:59:11.310Z,27.30
2022-08-04T05:01:50.052Z,27.43
2022-08-04T05:04:29.638Z,27.57
2022-08-04T05:07:23.917Z,27.78
2022-08-04T05:10:09.584Z,28.08
2022-08-04T05:14:37.361Z,28.79
2022-08-04T05:16:16.933Z,31.36
2022-08-04T05:18:55.447Z,32.97
2022-08-04T05:21:42.702Z,34.46
2022-08-04T05:24:12.573Z,34.29
2022-08-04T05:26:45.958Z,33.59
2022-08-04T05:29:35.436Z,32.70
2022-08-04T05:32:07.887Z,31.99
2022-08-04T05:34:42.649Z,31.48
2022-08-04T05:37:16.580Z,31.11
2022-08-04T05:39:48.345Z,31.49
2022-08-04T05:42:15.993Z,32.69
2022-08-04T05:44:48.904Z,34.27
2022-08-04T05:47:21.748Z,35.50
2022-08-04T05:50:01.147Z,36.27
2022-08-04T05:52:31.924Z,36.93
2022-08-04T05:55:00.801Z,37.29
2022-08-04T05:57:29.490Z,37.31
2022-08-04T06:00:00.695Z,37.31
2022-08-04T06:02:30.754Z,37.13
2022-08-04T06:04:59.853Z,37.30
2022-08-04T06:07:27.828Z,37.28
2022-08-04T06:09:55.415Z,37.28
2022-08-04T06:12:27.122Z,37.37
2022-08-04T06:14:59.414Z,37.52
2022-08-04T06:18:34.131Z,37.15
2022-08-04T06:20:31.584Z,37.71
2022-08-04T06:23:04.942Z,37.77
2022-08-04T06:25:34.661Z,37.30
2022-08-04T06:28:05.547Z,37.42
2022-08-04T06:30:33.494Z,37.33
2022-08-04T06:33:05.216Z,37.38
2022-08-04T06:35:34.034Z,37.29
2022-08-04T06:38:03.172Z,36.92
2022-08-04T06:40:33.733Z,36.77
2022-08-04T06:43:04.116Z,36.27
2022-08-04T06:45:35.046Z,36.42
2022-08-04T06:48:03.856Z,36.50
2022-08-04T06:51:28.023Z,36.85
2022-08-04T06:53:20.565Z,36.82
2022-08-04T06:55:49.850Z,36.90
2022-08-04T06:58:19.440Z,37.41
2022-08-04T07:00:49.196Z,37.50
2022-08-04T07:03:18.363Z,37.85
2022-08-04T07:05:48.357Z,37.42
2022-08-04T07:08:16.833Z,36.99
2022-08-04T07:10:45.519Z,36.46
2022-08-04T07:13:13.786Z,36.94
2022-08-04T07:15:45.968Z,37.37
2022-08-04T07:18:13.506Z,37.33
2022-08-04T07:20:47.254Z,37.44
2022-08-04T07:23:21.658Z,36.28
2022-08-04T07:26:00.352Z,37.17
2022-08-04T07:28:39.906Z,37.41
2022-08-04T07:31:11.149Z,37.52
2022-08-04T07:34:17.178Z,37.19
2022-08-04T07:36:50.233Z,36.84
2022-08-04T07:39:26.414Z,36.48
2022-08-04T07:41:57.963Z,35.72
2022-08-04T07:44:26.962Z,35.62
2022-08-04T07:46:55.123Z,35.44
2022-08-04T07:49:54.660Z,36.15
2022-08-04T07:52:10.482Z,36.31
2022-08-04T07:54:39.970Z,36.73
2022-08-04T07:57:07.208Z,36.05
2022-08-04T07:59:36.167Z,36.81
2022-08-04T08:02:04.053Z,36.97
2022-08-04T08:04:32.968Z,36.75
2022-08-04T08:07:00.208Z,35.68
2022-08-04T08:09:27.564Z,36.44
2022-08-04T08:12:35.763Z,35.88
2022-08-04T08:14:43.940Z,35.69
2022-08-04T08:17:11.130Z,36.50
2022-08-04T08:19:38.824Z,36.47
2022-08-04T08:22:06.157Z,36.59
2022-08-04T08:24:37.382Z,36.58
2022-08-04T08:27:05.479Z,36.38
2022-08-04T08:29:34.957Z,36.75
2022-08-04T08:32:08.773Z,36.62
2022-08-04T08:34:39.121Z,36.49
2022-08-04T08:37:27.122Z,36.28
2022-08-04T08:39:54.242Z,36.23
2022-08-04T08:42:36.591Z,35.83
2022-08-04T08:45:25.549Z,35.43
2022-08-04T08:48:34.462Z,35.48
2022-08-04T08:51:36.441Z,35.61
2022-08-04T08:54:38.389Z,35.23
2022-08-04T08:57:08.454Z,35.09
2022-08-04T08:59:53.532Z,35.14
2022-08-04T09:02:45.526Z,34.99
2022-08-04T09:05:15.476Z,34.70
2022-08-04T09:08:07.404Z,34.35
2022-08-04T09:10:44.296Z,34.36
2022-08-04T09:13:25.562Z,34.31
2022-08-04T09:16:06.425Z,34.30
2022-08-04T09:19:08.703Z,33.91
2022-08-04T09:21:59.263Z,32.88
2022-08-04T09:24:50.896Z,32.70
2022-08-04T09:27:30.971Z,32.30
2022-08-04T09:30:09.224Z,32.21
2022-08-04T09:32:39.644Z,32.18
2022-08-04T09:35:25.697Z,32.16
2022-08-04T09:38:03.201Z,32.04
2022-08-04T09:40:52.772Z,31.96
2022-08-04T09:43:58.999Z,31.76
2022-08-04T09:47:03.790Z,31.70
2022-08-04T09:49:49.653Z,31.84
2022-08-04T09:52:56.825Z,31.80
2022-08-04T09:55:54.350Z,31.78
2022-08-04T09:58:44.202Z,31.82
2022-08-04T10:01:22.508Z,31.74
2022-08-04T10:03:55.365Z,31.76
2022-08-04T10:07:03.224Z,31.68
2022-08-04T10:10:03.655Z,31.61
2022-08-04T10:12:42.174Z,31.54
2022-08-04T10:15:41.779Z,31.71
2022-08-04T10:18:17.599Z,31.54
2022-08-04T10:21:14.826Z,31.46
2022-08-04T10:24:20.493Z,31.63
2022-08-04T10:27:17.089Z,31.62
2022-08-04T10:29:47.535Z,31.72
2022-08-04T10:32:18.125Z,31.74
2022-08-04T10:35:08.981Z,31.75
2022-08-04T10:38:00.006Z,31.87
2022-08-04T10:41:07.102Z,32.07
2022-08-04T10:43:59.335Z,32.07
2022-08-04T10:46:39.747Z,32.04
2022-08-04T10:49:24.369Z,31.77
2022-08-04T10:52:18.537Z,31.62
2022-08-04T10:55:08.823Z,31.30
2022-08-04T10:57:41.792Z,31.23
2022-08-04T11:00:15.111Z,31.26
2022-08-04T11:02:59.827Z,31.11
2022-08-04T11:05:54.546Z,31.36
2022-08-04T11:08:26.441Z,31.37
2022-08-04T11:11:01.794Z,31.46
2022-08-04T11:14:02.885Z,31.34
2022-08-04T11:16:37.664Z,31.16
2022-08-04T11:19:18.284Z,31.11
2022-08-04T11:21:55.189Z,30.99
2022-08-04T11:24:49.906Z,30.80
2022-08-04T11:27:25.996Z,30.69
2022-08-04T11:30:08.103Z,30.61
2022-08-04T11:33:04.828Z,30.67
2022-08-04T11:35:39.029Z,30.91
2022-08-04T11:38:24.127Z,30.93
2022-08-04T11:41:05.894Z,30.89
2022-08-04T11:44:03.349Z,30.93
2022-08-04T11:46:45.410Z,31.06
2022-08-04T11:49:24.580Z,31.06
2022-08-04T11:51:53.882Z,30.96
2022-08-04T11:54:22.226Z,30.93
2022-08-04T11:56:49.453Z,30.84
2022-08-04T11:59:18.271Z,30.89
2022-08-04T12:02:23.549Z,30.77
2022-08-04T12:04:57.783Z,30.64
2022-08-04T12:08:00.528Z,30.71
2022-08-04T12:10:50.839Z,30.99
2022-08-04T12:13:46.309Z,31.31
2022-08-04T12:16:36.321Z,31.23
2022-08-04T12:19:12.542Z,31.10
2022-08-04T12:21:57.559Z,30.81
2022-08-04T12:24:32.091Z,30.67
2022-08-04T12:27:07.408Z,30.57
2022-08-04T12:29:37.490Z,30.57
2022-08-04T12:32:21.934Z,30.55
2022-08-04T12:35:08.193Z,30.53
2022-08-04T12:37:48.710Z,30.48
2022-08-04T12:40:30.913Z,30.56
2022-08-04T12:43:24.739Z,30.35
2022-08-04T12:45:55.465Z,30.27
2022-08-04T12:48:25.493Z,30.29
2022-08-04T12:50:58.326Z,30.24
2022-08-04T12:53:34.554Z,30.37
2022-08-04T12:56:24.414Z,30.37
2022-08-04T12:58:53.656Z,30.32
2022-08-04T13:02:08.340Z,30.36
2022-08-04T13:04:20.068Z,30.32
2022-08-04T13:07:14.016Z,30.42
2022-08-04T13:09:41.549Z,30.55
2022-08-04T13:12:32.234Z,30.39
2022-08-04T13:15:18.226Z,30.33
2022-08-04T13:18:03.534Z,30.41
2022-08-04T13:20:34.109Z,30.30
2022-08-04T13:23:14.717Z,30.21
2022-08-04T13:26:43.479Z,30.20
2022-08-04T13:28:42.805Z,30.10
2022-08-04T13:31:16.825Z,30.07
2022-08-04T13:33:48.863Z,30.06
2022-08-04T13:36:18.883Z,30.13
2022-08-04T13:38:54.321Z,30.20
2022-08-04T13:41:24.112Z,30.18
2022-08-04T13:44:18.582Z,30.24
2022-08-04T13:46:50.915Z,30.36
2022-08-04T13:49:42.687Z,30.46
2022-08-04T13:52:10.562Z,30.38
2022-08-04T13:54:45.093Z,30.17
2022-08-04T13:57:19.931Z,29.99
2022-08-04T13:59:53.706Z,29.89
2022-08-04T14:02:35.139Z,29.98
2022-08-04T14:05:18.634Z,29.98
2022-08-04T14:07:51.010Z,30.01
2022-08-04T14:10:18.767Z,30.00
2022-08-04T14:12:47.744Z,30.18
2022-08-04T14:16:02.703Z,30.13
2022-08-04T14:18:30.325Z,30.00
2022-08-04T14:21:05.969Z,29.90
2022-08-04T14:23:46.978Z,29.84
2022-08-04T14:26:18.147Z,29.80
2022-08-04T14:29:27.281Z,29.85
2022-08-04T14:31:33.479Z,29.88
2022-08-04T14:34:09.625Z,29.80
2022-08-04T14:37:13.670Z,29.86
2022-08-04T14:40:07.590Z,29.82
2022-08-04T14:42:54.771Z,29.71
2022-08-04T14:45:36.266Z,29.66
2022-08-04T14:48:09.312Z,29.67
2022-08-04T14:50:49.064Z,29.57
2022-08-04T14:53:18.019Z,29.45
2022-08-04T14:55:48.377Z,29.36
2022-08-04T14:58:34.692Z,29.27
2022-08-04T15:01:12.592Z,29.13
2022-08-04T15:03:52.171Z,29.07
2022-08-04T15:06:27.393Z,29.08
2022-08-04T15:08:58.315Z,29.05
2022-08-04T15:11:26.200Z,29.13
2022-08-04T15:13:55.143Z,29.20
2022-08-04T15:16:24.863Z,29.25
2022-08-04T15:18:54.732Z,29.43
2022-08-04T15:21:26.214Z,29.65
2022-08-04T15:23:53.938Z,29.84
2022-08-04T15:26:44.965Z,29.78
2022-08-04T15:29:19.919Z,29.84
2022-08-04T15:32:03.935Z,29.94
2022-08-04T15:34:49.717Z,29.95
2022-08-04T15:37:42.465Z,29.99
2022-08-04T15:40:14.973Z,29.96
2022-08-04T15:42:49.663Z,30.13
2022-08-04T15:46:04.263Z,30.10
2022-08-04T15:48:12.861Z,30.24
2022-08-04T15:51:00.663Z,30.40
2022-08-04T15:54:02.893Z,30.53
2022-08-04T15:56:48.354Z,30.64
2022-08-04T16:00:02.947Z,30.75
2022-08-04T16:02:41.338Z,30.65
2022-08-04T16:05:18.158Z,30.57
2022-08-04T16:08:04.798Z,30.51
2022-08-04T16:10:31.967Z,30.53
2022-08-04T16:13:10.150Z,30.52
2022-08-04T16:15:45.839Z,30.55
2022-08-04T16:18:26.367Z,30.45
2022-08-04T16:20:59.896Z,30.45
2022-08-04T16:24:05.644Z,30.24
2022-08-04T16:26:45.279Z,29.97
2022-08-04T16:29:34.361Z,29.87
2022-08-04T16:32:07.375Z,29.90
2022-08-04T16:34:54.649Z,29.82
2022-08-04T16:37:49.168Z,29.94
2022-08-04T16:40:35.652Z,30.15
2022-08-04T16:43:15.863Z,30.40
2022-08-04T16:45:48.787Z,30.61
2022-08-04T16:48:18.417Z,30.76
2022-08-04T16:50:49.919Z,30.88
2022-08-04T16:53:53.172Z,30.95
2022-08-04T16:56:18.994Z,30.95
2022-08-04T16:58:53.040Z,30.96
2022-08-04T17:01:32.977Z,30.86
2022-08-04T17:04:06.695Z,30.87
2022-08-04T17:06:39.257Z,30.87
2022-08-04T17:09:28.909Z,30.85
2022-08-04T17:11:57.808Z,30.83
2022-08-04T17:14:27.750Z,30.86
2022-08-04T17:17:01.992Z,30.79
2022-08-04T17:19:29.323Z,30.76
2022-08-04T17:22:10.412Z,30.71
2022-08-04T17:24:41.209Z,30.72
2022-08-04T17:28:09.512Z,30.75
2022-08-04T17:30:01.497Z,30.75
2022-08-04T17:32:41.302Z,30.76
2022-08-04T17:35:11.687Z,30.74
2022-08-04T17:37:52.854Z,30.70
2022-08-04T17:40:25.241Z,30.64
2022-08-04T17:44:03.053Z,30.58
2022-08-04T17:46:37.198Z,30.52
2022-08-04T17:49:18.532Z,30.45
2022-08-04T17:52:02.517Z,30.40
2022-08-04T17:54:38.614Z,30.35
2022-08-04T17:57:23.557Z,30.27
2022-08-04T17:59:58.769Z,30.13
2022-08-04T18:02:34.102Z,30.05
2022-08-04T18:05:11.661Z,29.97
2022-08-04T18:08:39.661Z,29.90
2022-08-04T18:10:44.619Z,29.77
2022-08-04T18:13:28.380Z,29.67
2022-08-04T18:16:05.874Z,29.63
2022-08-04T18:18:35.218Z,29.57
2022-08-04T18:21:06.137Z,29.55
2022-08-04T18:23:33.603Z,29.52
2022-08-04T18:28:49.066Z,29.43
2022-08-04T18:31:16.611Z,29.40
2022-08-04T18:33:43.998Z,29.38
2022-08-04T18:36:35.283Z,29.34
2022-08-04T18:39:12.551Z,29.29
2022-08-04T18:42:00.806Z,29.27
2022-08-04T18:44:32.168Z,29.23
2022-08-04T18:47:19.332Z,29.18
2022-08-04T18:50:58.552Z,29.12
2022-08-04T18:52:35.267Z,29.08
2022-08-04T18:55:57.798Z,29.04
2022-08-04T18:58:07.166Z,29.01
2022-08-04T19:00:45.290Z,29.02
2022-08-04T19:03:16.221Z,29.00
2022-08-04T19:05:49.176Z,28.98
2022-08-04T19:08:34.916Z,28.99
2022-08-04T19:11:28.736Z,29.01
2022-08-04T19:13:57.851Z,28.99
2022-08-04T19:16:27.484Z,28.97
2022-08-04T19:18:57.162Z,28.97
2022-08-04T19:22:00.393Z,28.95
2022-08-04T19:24:32.693Z,28.95
2022-08-04T19:27:08.242Z,28.94
2022-08-04T19:29:41.491Z,28.89
2022-08-04T19:32:14.651Z,28.82
2022-08-04T19:34:47.250Z,28.80
2022-08-04T19:37:55.928Z,28.79
2022-08-04T19:40:05.923Z,28.71
2022-08-04T19:42:33.207Z,28.67
2022-08-04T19:45:02.205Z,28.62
2022-08-04T19:48:12.319Z,28.58
2022-08-04T19:50:17.117Z,28.54
2022-08-04T19:52:51.776Z,28.55
2022-08-04T19:55:22.704Z,28.44
2022-08-04T19:58:06.102Z,28.35
2022-08-04T20:00:37.157Z,28.32
2022-08-04T20:03:11.310Z,28.20
2022-08-04T20:05:55.030Z,28.11
2022-08-04T20:08:31.955Z,28.04
2022-08-04T20:11:00.376Z,27.96
2022-08-04T20:13:37.348Z,27.92
2022-08-04T20:16:28.429Z,27.90
2022-08-04T20:18:59.556Z,27.92
2022-08-04T20:21:53.726Z,27.89
2022-08-04T20:24:36.925Z,27.97
2022-08-04T20:29:55.630Z,28.00
2022-08-04T20:32:25.430Z,28.00
2022-08-04T20:34:53.983Z,27.99
2022-08-04T20:37:25.903Z,27.95
2022-08-04T20:40:12.930Z,27.92
2022-08-04T20:42:40.690Z,27.91
2022-08-04T20:45:16.308Z,27.91
2022-08-04T20:47:54.065Z,27.91
2022-08-04T20:50:29.584Z,27.94
2022-08-04T20:52:58.559Z,27.95
2022-08-04T20:55:26.316Z,27.98
2022-08-04T20:58:02.754Z,28.03
2022-08-04T21:00:31.350Z,28.07
2022-08-04T21:02:59.768Z,28.09
2022-08-04T21:05:27.086Z,28.10
2022-08-04T21:07:57.294Z,28.10
2022-08-04T21:10:25.906Z,28.12
2022-08-04T21:12:54.126Z,28.12
2022-08-04T21:15:25.557Z,28.11
2022-08-04T21:17:59.345Z,28.07
2022-08-04T21:20:32.186Z,28.03
2022-08-04T21:23:02.045Z,28.00
2022-08-04T21:25:30.812Z,27.97
2022-08-04T21:30:52.426Z,27.94
2022-08-04T21:33:20.994Z,27.94
2022-08-04T21:35:49.342Z,27.91
2022-08-04T21:38:25.222Z,27.90
2022-08-04T21:40:56.896Z,27.85
2022-08-04T21:43:27.315Z,27.79
2022-08-04T21:46:04.936Z,27.74
2022-08-04T21:48:32.964Z,27.72
2022-08-04T21:51:58.657Z,27.69
2022-08-04T21:54:09.097Z,27.67
2022-08-04T21:56:38.054Z,27.67
2022-08-04T22:01:54.972Z,27.62
2022-08-04T22:04:22.391Z,27.58
2022-08-04T22:06:52.220Z,27.55
2022-08-04T22:09:21.781Z,27.50
2022-08-04T22:11:51.077Z,27.48
2022-08-04T22:14:27.391Z,27.45
2022-08-04T22:16:58.501Z,27.43
2022-08-04T22:19:50.105Z,27.44
2022-08-04T22:22:24.468Z,27.43
2022-08-04T22:25:00.748Z,27.45
2022-08-04T22:27:47.813Z,27.43
2022-08-04T22:30:24.109Z,27.42
2022-08-04T22:32:51.625Z,27.39
2022-08-04T22:35:43.422Z,27.36
2022-08-04T22:38:28.007Z,27.32
2022-08-04T22:41:14.280Z,27.30
2022-08-04T22:43:43.807Z,27.30
2022-08-04T22:46:20.833Z,27.29
2022-08-04T22:48:49.160Z,27.26
2022-08-04T22:51:16.807Z,27.25
2022-08-04T22:53:48.827Z,27.24
2022-08-04T22:56:37.928Z,27.27
2022-08-04T22:59:05.205Z,27.28
2022-08-04T23:01:57.767Z,27.26
2022-08-04T23:04:19.468Z,27.26
2022-08-04T23:06:46.746Z,27.24
2022-08-04T23:09:16.184Z,27.22
2022-08-04T23:11:44.200Z,27.18
2022-08-04T23:14:11.434Z,27.13
2022-08-04T23:16:40.432Z,27.10
2022-08-04T23:19:15.215Z,27.08
2022-08-04T23:21:47.452Z,27.07
2022-08-04T23:24:29.624Z,27.09
2022-08-04T23:26:58.438Z,27.03
2022-08-04T23:29:25.842Z,26.99
2022-08-04T23:31:59.613Z,26.99
2022-08-04T23:34:29.506Z,26.97
2022-08-04T23:36:59.110Z,26.90
2022-08-04T23:40:03.292Z,26.88
2022-08-04T23:42:14.910Z,26.84
2022-08-04T23:44:42.429Z,26.84
2022-08-04T23:48:18.544Z,26.83
2022-08-04T23:50:02.009Z,26.79
2022-08-04T23:52:30.111Z,26.77
2022-08-04T23:54:59.787Z,26.75
2022-08-04T23:58:05.172Z,26.75
